Terminal Aerodrome Forecast
Issued by NWS

Home | Current Version | Previous Version | Text Only | Print | Product List | Glossary On
Versions: 1 2 3 4 5 6 7 8 9 10 11 12 13 14 15
000
FTUS45 KVEF 310535
TAFEED
TAF
KEED 310535Z 3106/0106 21003KT P6SM SCT150 BKN200
     FM311000 VRB05KT P6SM FEW150 SCT200
     FM312200 08011KT P6SM VCTS SCT100CB BKN150
      TEMPO 3122/0102 VRB20G35KT 6SM -TSRA FEW070CB SCT090 BKN110
     FM010300 24007KT P6SM FEW100 SCT150=

USA.gov is the U.S. government's official web portal to all federal, state and local government web resources and services.